sensor_id;sensor_type;location;lat;lon;timestamp;temperature;humidity
26990;DHT22;14537;47.788;11.858;2024-03-02T00:00:07;4.60;99.90
26990;DHT22;14537;47.788;11.858;2024-03-02T00:02:42;4.60;99.90
26990;DHT22;14537;47.788;11.858;2024-03-02T00:05:11;4.60;99.90
26990;DHT22;14537;47.788;11.858;2024-03-02T00:07:37;4.60;99.90
26990;DHT22;14537;47.788;11.858;2024-03-02T00:10:09;4.60;99.90
26990;DHT22;14537;47.788;11.858;2024-03-02T00:12:38;4.50;99.90
26990;DHT22;14537;47.788;11.858;2024-03-02T00:17:54;4.50;99.90
26990;DHT22;14537;47.788;11.858;2024-03-02T00:20:23;4.50;99.90
26990;DHT22;14537;47.788;11.858;2024-03-02T00:22:50;4.60;99.90
26990;DHT22;14537;47.788;11.858;2024-03-02T00:25:16;4.50;99.90
26990;DHT22;14537;47.788;11.858;2024-03-02T00:27:42;4.50;99.90
26990;DHT22;14537;47.788;11.858;2024-03-02T00:32:56;4.50;99.90
26990;DHT22;14537;47.788;11.858;2024-03-02T00:35:23;4.50;99.90
26990;DHT22;14537;47.788;11.858;2024-03-02T00:37:48;4.60;99.90
26990;DHT22;14537;47.788;11.858;2024-03-02T00:40:15;4.50;99.90
26990;DHT22;14537;47.788;11.858;2024-03-02T00:42:41;4.50;99.90
26990;DHT22;14537;47.788;11.858;2024-03-02T00:45:08;4.50;99.90
26990;DHT22;14537;47.788;11.858;2024-03-02T00:47:39;4.50;99.90
26990;DHT22;14537;47.788;11.858;2024-03-02T00:50:05;4.50;99.90
26990;DHT22;14537;47.788;11.858;2024-03-02T00:52:32;4.50;99.90
26990;DHT22;14537;47.788;11.858;2024-03-02T00:54:58;4.50;99.90
26990;DHT22;14537;47.788;11.858;2024-03-02T00:57:24;4.50;99.90
26990;DHT22;14537;47.788;11.858;2024-03-02T00:59:51;4.60;99.90
26990;DHT22;14537;47.788;11.858;2024-03-02T01:02:17;4.60;99.90
26990;DHT22;14537;47.788;11.858;2024-03-02T01:04:45;4.60;99.90
26990;DHT22;14537;47.788;11.858;2024-03-02T01:07:11;4.60;99.90
26990;DHT22;14537;47.788;11.858;2024-03-02T01:09:36;4.60;99.90
26990;DHT22;14537;47.788;11.858;2024-03-02T01:12:02;4.60;99.90
26990;DHT22;14537;47.788;11.858;2024-03-02T01:14:28;4.60;99.90
26990;DHT22;14537;47.788;11.858;2024-03-02T01:16:53;4.60;99.90
26990;DHT22;14537;47.788;11.858;2024-03-02T01:19:19;4.60;99.90
26990;DHT22;14537;47.788;11.858;2024-03-02T01:21:44;4.60;99.90
26990;DHT22;14537;47.788;11.858;2024-03-02T01:24:10;4.60;99.90
26990;DHT22;14537;47.788;11.858;2024-03-02T01:26:36;4.60;99.90
26990;DHT22;14537;47.788;11.858;2024-03-02T01:29:01;4.60;99.90
26990;DHT22;14537;47.788;11.858;2024-03-02T01:31:27;4.60;99.90
26990;DHT22;14537;47.788;11.858;2024-03-02T01:33:52;4.60;99.90
26990;DHT22;14537;47.788;11.858;2024-03-02T01:36:18;4.60;99.90
26990;DHT22;14537;47.788;11.858;2024-03-02T01:38:44;4.60;99.90
26990;DHT22;14537;47.788;11.858;2024-03-02T01:41:10;4.70;99.90
26990;DHT22;14537;47.788;11.858;2024-03-02T01:43:37;4.70;99.90
26990;DHT22;14537;47.788;11.858;2024-03-02T01:46:02;4.70;99.90
26990;DHT22;14537;47.788;11.858;2024-03-02T01:48:28;4.60;99.90
26990;DHT22;14537;47.788;11.858;2024-03-02T01:50:54;4.70;99.90
26990;DHT22;14537;47.788;11.858;2024-03-02T01:53:19;4.70;99.90
26990;DHT22;14537;47.788;11.858;2024-03-02T01:55:45;4.70;99.90
26990;DHT22;14537;47.788;11.858;2024-03-02T01:58:11;4.70;99.90
26990;DHT22;14537;47.788;11.858;2024-03-02T02:00:36;4.80;99.90
26990;DHT22;14537;47.788;11.858;2024-03-02T02:03:02;4.70;99.90
26990;DHT22;14537;47.788;11.858;2024-03-02T02:05:28;4.80;99.90
26990;DHT22;14537;47.788;11.858;2024-03-02T02:07:54;4.70;99.90
26990;DHT22;14537;47.788;11.858;2024-03-02T02:10:19;4.80;99.90
26990;DHT22;14537;47.788;11.858;2024-03-02T02:12:45;4.80;99.90
26990;DHT22;14537;47.788;11.858;2024-03-02T02:15:27;4.70;99.90
26990;DHT22;14537;47.788;11.858;2024-03-02T02:17:54;4.70;99.90
26990;DHT22;14537;47.788;11.858;2024-03-02T02:20:20;4.70;99.90
26990;DHT22;14537;47.788;11.858;2024-03-02T02:23:03;4.60;99.90
26990;DHT22;14537;47.788;11.858;2024-03-02T02:25:31;4.70;99.90
26990;DHT22;14537;47.788;11.858;2024-03-02T02:27:57;4.70;99.90
26990;DHT22;14537;47.788;11.858;2024-03-02T02:30:27;4.70;99.90
26990;DHT22;14537;47.788;11.858;2024-03-02T02:32:53;4.70;99.90
26990;DHT22;14537;47.788;11.858;2024-03-02T02:35:19;4.70;99.90
26990;DHT22;14537;47.788;11.858;2024-03-02T02:37:46;4.70;99.90
26990;DHT22;14537;47.788;11.858;2024-03-02T02:40:12;4.70;99.90
26990;DHT22;14537;47.788;11.858;2024-03-02T02:42:38;4.70;99.90
26990;DHT22;14537;47.788;11.858;2024-03-02T02:45:05;4.70;99.90
26990;DHT22;14537;47.788;11.858;2024-03-02T02:47:31;4.70;99.90
26990;DHT22;14537;47.788;11.858;2024-03-02T02:49:59;4.60;99.90
26990;DHT22;14537;47.788;11.858;2024-03-02T02:52:24;4.60;99.90
26990;DHT22;14537;47.788;11.858;2024-03-02T02:54:50;4.60;99.90
26990;DHT22;14537;47.788;11.858;2024-03-02T02:57:16;4.60;99.90
26990;DHT22;14537;47.788;11.858;2024-03-02T02:59:42;4.60;99.90
26990;DHT22;14537;47.788;11.858;2024-03-02T03:02:07;4.60;99.90
26990;DHT22;14537;47.788;11.858;2024-03-02T03:04:33;4.60;99.90
26990;DHT22;14537;47.788;11.858;2024-03-02T03:06:58;4.50;99.90
26990;DHT22;14537;47.788;11.858;2024-03-02T03:09:24;4.60;99.90
26990;DHT22;14537;47.788;11.858;2024-03-02T03:11:50;4.60;99.90
26990;DHT22;14537;47.788;11.858;2024-03-02T03:14:15;4.50;99.90
26990;DHT22;14537;47.788;11.858;2024-03-02T03:16:41;4.50;99.90
26990;DHT22;14537;47.788;11.858;2024-03-02T03:19:06;4.60;99.90
26990;DHT22;14537;47.788;11.858;2024-03-02T03:21:32;4.60;99.90
26990;DHT22;14537;47.788;11.858;2024-03-02T03:23:57;4.60;99.90
26990;DHT22;14537;47.788;11.858;2024-03-02T03:26:23;4.60;99.90
26990;DHT22;14537;47.788;11.858;2024-03-02T03:28:48;4.50;99.90
26990;DHT22;14537;47.788;11.858;2024-03-02T03:31:14;4.60;99.90
26990;DHT22;14537;47.788;11.858;2024-03-02T03:33:40;4.60;99.90
26990;DHT22;14537;47.788;11.858;2024-03-02T03:36:05;4.60;99.90
26990;DHT22;14537;47.788;11.858;2024-03-02T03:38:31;4.60;99.90
26990;DHT22;14537;47.788;11.858;2024-03-02T03:40:56;4.60;99.90
26990;DHT22;14537;47.788;11.858;2024-03-02T03:43:22;4.60;99.90
26990;DHT22;14537;47.788;11.858;2024-03-02T03:45:48;4.60;99.90
26990;DHT22;14537;47.788;11.858;2024-03-02T03:48:13;4.60;99.90
26990;DHT22;14537;47.788;11.858;2024-03-02T03:50:39;4.60;99.90
26990;DHT22;14537;47.788;11.858;2024-03-02T03:53:05;4.70;99.90
26990;DHT22;14537;47.788;11.858;2024-03-02T03:55:30;4.70;99.90
26990;DHT22;14537;47.788;11.858;2024-03-02T03:57:56;4.70;99.90
26990;DHT22;14537;47.788;11.858;2024-03-02T04:00:21;4.70;99.90
26990;DHT22;14537;47.788;11.858;2024-03-02T04:02:47;4.70;99.90
26990;DHT22;14537;47.788;11.858;2024-03-02T04:05:13;4.70;99.90
26990;DHT22;14537;47.788;11.858;2024-03-02T04:07:41;4.70;99.90
26990;DHT22;14537;47.788;11.858;2024-03-02T04:10:09;4.70;99.90
26990;DHT22;14537;47.788;11.858;2024-03-02T04:12:36;4.70;99.90
26990;DHT22;14537;47.788;11.858;2024-03-02T04:15:03;4.70;99.90
26990;DHT22;14537;47.788;11.858;2024-03-02T04:17:30;4.70;99.90
26990;DHT22;14537;47.788;11.858;2024-03-02T04:19:56;4.80;99.90
26990;DHT22;14537;47.788;11.858;2024-03-02T04:22:24;4.70;99.90
26990;DHT22;14537;47.788;11.858;2024-03-02T04:24:50;4.80;99.90
26990;DHT22;14537;47.788;11.858;2024-03-02T04:27:16;4.70;99.90
26990;DHT22;14537;47.788;11.858;2024-03-02T04:29:41;4.60;99.90
26990;DHT22;14537;47.788;11.858;2024-03-02T04:32:07;4.60;99.90
26990;DHT22;14537;47.788;11.858;2024-03-02T04:34:32;4.60;99.90
26990;DHT22;14537;47.788;11.858;2024-03-02T04:36:58;4.50;99.90
26990;DHT22;14537;47.788;11.858;2024-03-02T04:39:23;4.50;99.90
26990;DHT22;14537;47.788;11.858;2024-03-02T04:41:50;4.50;99.90
26990;DHT22;14537;47.788;11.858;2024-03-02T04:44:15;4.40;99.90
26990;DHT22;14537;47.788;11.858;2024-03-02T04:46:41;4.40;99.90
26990;DHT22;14537;47.788;11.858;2024-03-02T04:49:07;4.30;99.90
26990;DHT22;14537;47.788;11.858;2024-03-02T04:51:32;4.30;99.90
26990;DHT22;14537;47.788;11.858;2024-03-02T04:53:58;4.40;99.90
26990;DHT22;14537;47.788;11.858;2024-03-02T04:56:24;4.40;99.90
26990;DHT22;14537;47.788;11.858;2024-03-02T04:58:58;4.30;99.90
26990;DHT22;14537;47.788;11.858;2024-03-02T05:01:24;4.30;99.90
26990;DHT22;14537;47.788;11.858;2024-03-02T05:03:49;4.30;99.90
26990;DHT22;14537;47.788;11.858;2024-03-02T05:06:15;4.30;99.90
26990;DHT22;14537;47.788;11.858;2024-03-02T05:08:40;4.40;99.90
26990;DHT22;14537;47.788;11.858;2024-03-02T05:11:06;4.40;99.90
26990;DHT22;14537;47.788;11.858;2024-03-02T05:13:55;4.50;99.90
26990;DHT22;14537;47.788;11.858;2024-03-02T05:16:21;4.60;99.90
26990;DHT22;14537;47.788;11.858;2024-03-02T05:18:46;4.60;99.90
26990;DHT22;14537;47.788;11.858;2024-03-02T05:21:12;4.60;99.90
26990;DHT22;14537;47.788;11.858;2024-03-02T05:23:37;4.50;99.90
26990;DHT22;14537;47.788;11.858;2024-03-02T05:26:04;4.60;99.90
26990;DHT22;14537;47.788;11.858;2024-03-02T05:28:29;4.50;99.90
26990;DHT22;14537;47.788;11.858;2024-03-02T05:30:55;4.60;99.90
26990;DHT22;14537;47.788;11.858;2024-03-02T05:33:21;4.60;99.90
26990;DHT22;14537;47.788;11.858;2024-03-02T05:35:48;4.60;99.90
26990;DHT22;14537;47.788;11.858;2024-03-02T05:38:15;4.60;99.90
26990;DHT22;14537;47.788;11.858;2024-03-02T05:40:41;4.60;99.90
26990;DHT22;14537;47.788;11.858;2024-03-02T05:43:06;4.60;99.90
26990;DHT22;14537;47.788;11.858;2024-03-02T05:45:32;4.60;99.90
26990;DHT22;14537;47.788;11.858;2024-03-02T05:47:57;4.50;99.90
26990;DHT22;14537;47.788;11.858;2024-03-02T05:50:23;4.50;99.90
26990;DHT22;14537;47.788;11.858;2024-03-02T05:52:49;4.50;99.90
26990;DHT22;14537;47.788;11.858;2024-03-02T05:55:14;4.50;99.90
26990;DHT22;14537;47.788;11.858;2024-03-02T05:57:40;4.60;99.90
26990;DHT22;14537;47.788;11.858;2024-03-02T06:00:06;4.60;99.90
26990;DHT22;14537;47.788;11.858;2024-03-02T06:02:33;4.60;99.90
26990;DHT22;14537;47.788;11.858;2024-03-02T06:05:00;4.60;99.90
26990;DHT22;14537;47.788;11.858;2024-03-02T06:07:26;4.60;99.90
26990;DHT22;14537;47.788;11.858;2024-03-02T06:09:51;4.60;99.90
26990;DHT22;14537;47.788;11.858;2024-03-02T06:12:18;4.60;99.90
26990;DHT22;14537;47.788;11.858;2024-03-02T06:14:44;4.60;99.90
26990;DHT22;14537;47.788;11.858;2024-03-02T06:17:10;4.60;99.90
26990;DHT22;14537;47.788;11.858;2024-03-02T06:19:35;4.60;99.90
26990;DHT22;14537;47.788;11.858;2024-03-02T06:22:01;4.60;99.90
26990;DHT22;14537;47.788;11.858;2024-03-02T06:24:26;4.70;99.90
26990;DHT22;14537;47.788;11.858;2024-03-02T06:26:52;4.80;99.90
26990;DHT22;14537;47.788;11.858;2024-03-02T06:29:18;4.80;99.90
26990;DHT22;14537;47.788;11.858;2024-03-02T06:31:43;4.80;99.90
26990;DHT22;14537;47.788;11.858;2024-03-02T06:34:09;4.90;99.90
26990;DHT22;14537;47.788;11.858;2024-03-02T06:36:34;4.80;99.90
26990;DHT22;14537;47.788;11.858;2024-03-02T06:39:00;4.90;99.90
26990;DHT22;14537;47.788;11.858;2024-03-02T06:41:25;4.90;99.90
26990;DHT22;14537;47.788;11.858;2024-03-02T06:43:52;4.90;99.90
26990;DHT22;14537;47.788;11.858;2024-03-02T06:46:25;5.00;99.90
26990;DHT22;14537;47.788;11.858;2024-03-02T06:48:50;5.00;99.90
26990;DHT22;14537;47.788;11.858;2024-03-02T06:51:16;5.10;99.90
26990;DHT22;14537;47.788;11.858;2024-03-02T06:53:41;5.10;99.90
26990;DHT22;14537;47.788;11.858;2024-03-02T06:56:07;5.10;99.90
26990;DHT22;14537;47.788;11.858;2024-03-02T06:58:36;5.20;99.90
26990;DHT22;14537;47.788;11.858;2024-03-02T07:01:02;5.20;99.90
26990;DHT22;14537;47.788;11.858;2024-03-02T07:03:27;5.30;99.90
26990;DHT22;14537;47.788;11.858;2024-03-02T07:05:53;5.30;99.90
26990;DHT22;14537;47.788;11.858;2024-03-02T07:08:18;5.30;99.90
26990;DHT22;14537;47.788;11.858;2024-03-02T07:10:44;5.40;99.90
26990;DHT22;14537;47.788;11.858;2024-03-02T07:13:09;5.40;99.90
26990;DHT22;14537;47.788;11.858;2024-03-02T07:15:35;5.50;99.90
26990;DHT22;14537;47.788;11.858;2024-03-02T07:18:19;5.50;99.90
26990;DHT22;14537;47.788;11.858;2024-03-02T07:20:45;5.60;99.90
26990;DHT22;14537;47.788;11.858;2024-03-02T07:23:10;5.60;99.90
26990;DHT22;14537;47.788;11.858;2024-03-02T07:25:36;5.70;99.90
26990;DHT22;14537;47.788;11.858;2024-03-02T07:28:01;5.80;99.90
26990;DHT22;14537;47.788;11.858;2024-03-02T07:30:28;5.90;99.90
26990;DHT22;14537;47.788;11.858;2024-03-02T07:32:53;5.90;99.90
26990;DHT22;14537;47.788;11.858;2024-03-02T07:35:19;6.00;99.90
26990;DHT22;14537;47.788;11.858;2024-03-02T07:37:45;6.10;99.90
26990;DHT22;14537;47.788;11.858;2024-03-02T07:40:11;6.20;99.90
26990;DHT22;14537;47.788;11.858;2024-03-02T07:42:38;6.30;99.90
26990;DHT22;14537;47.788;11.858;2024-03-02T07:45:05;6.40;99.90
26990;DHT22;14537;47.788;11.858;2024-03-02T07:47:30;6.40;99.90
26990;DHT22;14537;47.788;11.858;2024-03-02T07:49:56;6.50;99.90
26990;DHT22;14537;47.788;11.858;2024-03-02T07:52:22;6.60;99.90
26990;DHT22;14537;47.788;11.858;2024-03-02T07:54:47;6.60;99.90
26990;DHT22;14537;47.788;11.858;2024-03-02T07:57:13;6.70;99.90
26990;DHT22;14537;47.788;11.858;2024-03-02T07:59:39;6.70;99.90
26990;DHT22;14537;47.788;11.858;2024-03-02T08:02:04;6.80;99.90
26990;DHT22;14537;47.788;11.858;2024-03-02T08:04:30;6.80;99.90
26990;DHT22;14537;47.788;11.858;2024-03-02T08:06:56;6.90;99.90
26990;DHT22;14537;47.788;11.858;2024-03-02T08:09:21;6.90;99.90
26990;DHT22;14537;47.788;11.858;2024-03-02T08:11:47;7.00;99.90
26990;DHT22;14537;47.788;11.858;2024-03-02T08:14:12;7.00;99.90
26990;DHT22;14537;47.788;11.858;2024-03-02T08:16:38;7.00;99.90
26990;DHT22;14537;47.788;11.858;2024-03-02T08:19:04;7.00;99.90
26990;DHT22;14537;47.788;11.858;2024-03-02T08:21:29;7.10;99.90
26990;DHT22;14537;47.788;11.858;2024-03-02T08:24:01;7.10;99.90
26990;DHT22;14537;47.788;11.858;2024-03-02T08:26:27;7.20;99.90
26990;DHT22;14537;47.788;11.858;2024-03-02T08:28:55;7.10;99.90
26990;DHT22;14537;47.788;11.858;2024-03-02T08:31:20;7.20;99.90
26990;DHT22;14537;47.788;11.858;2024-03-02T08:33:46;7.10;99.90
26990;DHT22;14537;47.788;11.858;2024-03-02T08:36:12;7.20;99.90
26990;DHT22;14537;47.788;11.858;2024-03-02T08:38:37;7.20;99.90
26990;DHT22;14537;47.788;11.858;2024-03-02T08:41:03;7.20;99.90
26990;DHT22;14537;47.788;11.858;2024-03-02T08:43:29;7.20;99.90
26990;DHT22;14537;47.788;11.858;2024-03-02T08:45:55;7.10;99.90
26990;DHT22;14537;47.788;11.858;2024-03-02T08:48:20;7.10;99.90
26990;DHT22;14537;47.788;11.858;2024-03-02T08:50:46;7.10;99.90
26990;DHT22;14537;47.788;11.858;2024-03-02T08:53:12;7.10;99.90
26990;DHT22;14537;47.788;11.858;2024-03-02T08:55:37;7.10;99.90
26990;DHT22;14537;47.788;11.858;2024-03-02T08:58:03;7.10;99.90
26990;DHT22;14537;47.788;11.858;2024-03-02T09:00:29;7.10;99.90
26990;DHT22;14537;47.788;11.858;2024-03-02T09:02:54;7.20;99.90
26990;DHT22;14537;47.788;11.858;2024-03-02T09:05:20;7.20;99.90
26990;DHT22;14537;47.788;11.858;2024-03-02T09:07:46;7.30;99.90
26990;DHT22;14537;47.788;11.858;2024-03-02T09:10:11;7.30;99.90
26990;DHT22;14537;47.788;11.858;2024-03-02T09:12:37;7.40;99.90
26990;DHT22;14537;47.788;11.858;2024-03-02T09:15:03;7.30;99.90
26990;DHT22;14537;47.788;11.858;2024-03-02T09:17:29;7.40;99.90
26990;DHT22;14537;47.788;11.858;2024-03-02T09:19:55;7.40;99.90
26990;DHT22;14537;47.788;11.858;2024-03-02T09:22:21;7.50;99.90
26990;DHT22;14537;47.788;11.858;2024-03-02T09:24:47;7.50;99.90
26990;DHT22;14537;47.788;11.858;2024-03-02T09:27:12;7.50;99.90
26990;DHT22;14537;47.788;11.858;2024-03-02T09:29:38;7.60;99.90
26990;DHT22;14537;47.788;11.858;2024-03-02T09:32:05;7.50;99.90
26990;DHT22;14537;47.788;11.858;2024-03-02T09:34:31;7.60;99.90
26990;DHT22;14537;47.788;11.858;2024-03-02T09:36:57;7.50;99.90
26990;DHT22;14537;47.788;11.858;2024-03-02T09:39:23;7.50;99.90
26990;DHT22;14537;47.788;11.858;2024-03-02T09:41:51;7.60;99.90
26990;DHT22;14537;47.788;11.858;2024-03-02T09:44:16;7.70;99.90
26990;DHT22;14537;47.788;11.858;2024-03-02T09:46:42;7.90;99.90
26990;DHT22;14537;47.788;11.858;2024-03-02T09:49:12;8.00;99.90
26990;DHT22;14537;47.788;11.858;2024-03-02T09:51:38;8.20;99.90
26990;DHT22;14537;47.788;11.858;2024-03-02T09:54:05;8.20;99.90
26990;DHT22;14537;47.788;11.858;2024-03-02T09:56:32;8.30;99.90
26990;DHT22;14537;47.788;11.858;2024-03-02T09:58:58;8.40;99.90
26990;DHT22;14537;47.788;11.858;2024-03-02T10:01:24;8.40;99.90
26990;DHT22;14537;47.788;11.858;2024-03-02T10:03:50;8.40;99.90
26990;DHT22;14537;47.788;11.858;2024-03-02T10:06:26;8.40;99.90
26990;DHT22;14537;47.788;11.858;2024-03-02T10:08:53;8.50;99.90
26990;DHT22;14537;47.788;11.858;2024-03-02T10:14:20;8.70;99.90
26990;DHT22;14537;47.788;11.858;2024-03-02T10:16:45;8.70;99.90
26990;DHT22;14537;47.788;11.858;2024-03-02T10:19:24;8.70;99.90
26990;DHT22;14537;47.788;11.858;2024-03-02T10:21:52;8.80;99.90
26990;DHT22;14537;47.788;11.858;2024-03-02T10:24:19;8.80;99.90
26990;DHT22;14537;47.788;11.858;2024-03-02T10:26:45;8.80;99.90
26990;DHT22;14537;47.788;11.858;2024-03-02T10:29:11;8.90;99.90
26990;DHT22;14537;47.788;11.858;2024-03-02T10:31:38;9.00;99.90
26990;DHT22;14537;47.788;11.858;2024-03-02T10:34:04;9.00;99.90
26990;DHT22;14537;47.788;11.858;2024-03-02T10:36:29;9.10;99.90
26990;DHT22;14537;47.788;11.858;2024-03-02T10:38:58;9.10;99.90
26990;DHT22;14537;47.788;11.858;2024-03-02T10:41:26;9.20;99.90
26990;DHT22;14537;47.788;11.858;2024-03-02T10:43:56;9.10;99.90
26990;DHT22;14537;47.788;11.858;2024-03-02T10:46:28;9.10;99.90
26990;DHT22;14537;47.788;11.858;2024-03-02T10:48:58;9.20;99.90
26990;DHT22;14537;47.788;11.858;2024-03-02T10:51:28;9.20;99.90
26990;DHT22;14537;47.788;11.858;2024-03-02T10:53:57;9.20;99.90
26990;DHT22;14537;47.788;11.858;2024-03-02T10:56:32;9.10;99.90
26990;DHT22;14537;47.788;11.858;2024-03-02T11:01:38;9.10;99.90
26990;DHT22;14537;47.788;11.858;2024-03-02T11:04:08;9.20;99.90
26990;DHT22;14537;47.788;11.858;2024-03-02T11:06:34;9.20;99.90
26990;DHT22;14537;47.788;11.858;2024-03-02T11:09:06;9.30;99.90
26990;DHT22;14537;47.788;11.858;2024-03-02T11:11:37;9.30;99.90
26990;DHT22;14537;47.788;11.858;2024-03-02T11:14:07;9.40;99.90
26990;DHT22;14537;47.788;11.858;2024-03-02T11:16:38;9.40;99.90
26990;DHT22;14537;47.788;11.858;2024-03-02T11:19:13;9.30;99.90
26990;DHT22;14537;47.788;11.858;2024-03-02T11:21:39;9.40;99.90
26990;DHT22;14537;47.788;11.858;2024-03-02T11:26:52;9.40;99.90
26990;DHT22;14537;47.788;11.858;2024-03-02T11:32:03;9.50;99.90
26990;DHT22;14537;47.788;11.858;2024-03-02T11:34:35;9.50;99.90
26990;DHT22;14537;47.788;11.858;2024-03-02T11:37:02;9.40;99.90
26990;DHT22;14537;47.788;11.858;2024-03-02T11:39:28;9.40;99.90
26990;DHT22;14537;47.788;11.858;2024-03-02T11:41:55;9.30;99.90
26990;DHT22;14537;47.788;11.858;2024-03-02T11:44:21;9.30;99.90
26990;DHT22;14537;47.788;11.858;2024-03-02T11:46:52;9.30;99.90
26990;DHT22;14537;47.788;11.858;2024-03-02T11:49:42;9.20;99.90
26990;DHT22;14537;47.788;11.858;2024-03-02T11:52:10;9.20;99.90
26990;DHT22;14537;47.788;11.858;2024-03-02T11:54:41;9.20;99.90
26990;DHT22;14537;47.788;11.858;2024-03-02T11:57:16;9.20;99.90
26990;DHT22;14537;47.788;11.858;2024-03-02T11:59:43;9.20;99.90
26990;DHT22;14537;47.788;11.858;2024-03-02T12:02:15;9.10;99.90
26990;DHT22;14537;47.788;11.858;2024-03-02T12:04:42;9.10;99.90
26990;DHT22;14537;47.788;11.858;2024-03-02T12:07:09;9.10;99.90
26990;DHT22;14537;47.788;11.858;2024-03-02T12:09:35;9.20;99.90
26990;DHT22;14537;47.788;11.858;2024-03-02T12:12:10;9.40;99.90
26990;DHT22;14537;47.788;11.858;2024-03-02T12:14:38;9.60;99.90
26990;DHT22;14537;47.788;11.858;2024-03-02T12:17:04;9.80;99.90
26990;DHT22;14537;47.788;11.858;2024-03-02T12:19:32;9.90;99.90
26990;DHT22;14537;47.788;11.858;2024-03-02T12:21:58;10.00;99.90
26990;DHT22;14537;47.788;11.858;2024-03-02T12:24:26;10.00;99.90
26990;DHT22;14537;47.788;11.858;2024-03-02T12:26:53;10.10;99.90
26990;DHT22;14537;47.788;11.858;2024-03-02T12:29:20;10.30;99.90
26990;DHT22;14537;47.788;11.858;2024-03-02T12:31:48;10.30;99.90
26990;DHT22;14537;47.788;11.858;2024-03-02T12:34:15;10.50;99.90
26990;DHT22;14537;47.788;11.858;2024-03-02T12:36:41;10.50;99.90
26990;DHT22;14537;47.788;11.858;2024-03-02T12:39:10;10.50;99.90
26990;DHT22;14537;47.788;11.858;2024-03-02T12:41:36;10.60;99.90
26990;DHT22;14537;47.788;11.858;2024-03-02T12:44:03;10.70;99.90
26990;DHT22;14537;47.788;11.858;2024-03-02T12:46:29;10.80;99.90
26990;DHT22;14537;47.788;11.858;2024-03-02T12:48:55;10.90;99.90
26990;DHT22;14537;47.788;11.858;2024-03-02T12:51:20;10.90;99.90
26990;DHT22;14537;47.788;11.858;2024-03-02T12:53:53;11.00;99.90
26990;DHT22;14537;47.788;11.858;2024-03-02T12:56:19;11.00;99.90
26990;DHT22;14537;47.788;11.858;2024-03-02T12:58:45;11.10;99.90
26990;DHT22;14537;47.788;11.858;2024-03-02T13:01:10;11.10;99.90
26990;DHT22;14537;47.788;11.858;2024-03-02T13:03:39;11.20;99.90
26990;DHT22;14537;47.788;11.858;2024-03-02T13:06:08;11.20;99.90
26990;DHT22;14537;47.788;11.858;2024-03-02T13:08:34;11.20;99.90
26990;DHT22;14537;47.788;11.858;2024-03-02T13:11:00;11.30;99.90
26990;DHT22;14537;47.788;11.858;2024-03-02T13:13:26;11.40;99.90
26990;DHT22;14537;47.788;11.858;2024-03-02T13:15:55;11.40;99.90
26990;DHT22;14537;47.788;11.858;2024-03-02T13:18:21;11.40;99.90
26990;DHT22;14537;47.788;11.858;2024-03-02T13:20:47;11.50;99.90
26990;DHT22;14537;47.788;11.858;2024-03-02T13:23:13;11.50;99.90
26990;DHT22;14537;47.788;11.858;2024-03-02T13:25:39;11.60;99.90
26990;DHT22;14537;47.788;11.858;2024-03-02T13:28:06;11.60;99.90
26990;DHT22;14537;47.788;11.858;2024-03-02T13:30:32;11.60;99.90
26990;DHT22;14537;47.788;11.858;2024-03-02T13:32:58;11.70;99.90
26990;DHT22;14537;47.788;11.858;2024-03-02T13:35:23;11.70;99.90
26990;DHT22;14537;47.788;11.858;2024-03-02T13:37:49;11.80;99.90
26990;DHT22;14537;47.788;11.858;2024-03-02T13:40:16;11.80;99.90
26990;DHT22;14537;47.788;11.858;2024-03-02T13:42:47;11.90;99.90
26990;DHT22;14537;47.788;11.858;2024-03-02T13:45:13;11.90;99.90
26990;DHT22;14537;47.788;11.858;2024-03-02T13:47:39;12.00;99.90
26990;DHT22;14537;47.788;11.858;2024-03-02T13:50:05;12.00;99.90
26990;DHT22;14537;47.788;11.858;2024-03-02T13:52:32;12.10;99.90
26990;DHT22;14537;47.788;11.858;2024-03-02T13:54:58;12.10;99.90
26990;DHT22;14537;47.788;11.858;2024-03-02T13:57:24;12.10;99.90
26990;DHT22;14537;47.788;11.858;2024-03-02T13:59:49;12.10;99.90
26990;DHT22;14537;47.788;11.858;2024-03-02T14:02:17;12.10;99.90
26990;DHT22;14537;47.788;11.858;2024-03-02T14:04:42;12.20;99.90
26990;DHT22;14537;47.788;11.858;2024-03-02T14:07:08;12.30;99.90
26990;DHT22;14537;47.788;11.858;2024-03-02T14:09:34;12.30;99.90
26990;DHT22;14537;47.788;11.858;2024-03-02T14:12:00;12.40;99.90
26990;DHT22;14537;47.788;11.858;2024-03-02T14:14:26;12.40;99.90
26990;DHT22;14537;47.788;11.858;2024-03-02T14:16:53;12.40;99.90
26990;DHT22;14537;47.788;11.858;2024-03-02T14:19:19;12.40;99.90
26990;DHT22;14537;47.788;11.858;2024-03-02T14:21:46;12.40;99.90
26990;DHT22;14537;47.788;11.858;2024-03-02T14:24:13;12.50;99.90
26990;DHT22;14537;47.788;11.858;2024-03-02T14:26:38;12.50;99.90
26990;DHT22;14537;47.788;11.858;2024-03-02T14:29:05;12.60;99.90
26990;DHT22;14537;47.788;11.858;2024-03-02T14:31:31;12.60;99.90
26990;DHT22;14537;47.788;11.858;2024-03-02T14:33:57;12.70;99.90
26990;DHT22;14537;47.788;11.858;2024-03-02T14:36:22;12.70;99.90
26990;DHT22;14537;47.788;11.858;2024-03-02T14:38:48;12.70;99.90
26990;DHT22;14537;47.788;11.858;2024-03-02T14:41:14;12.70;99.90
26990;DHT22;14537;47.788;11.858;2024-03-02T14:43:40;12.60;99.90
26990;DHT22;14537;47.788;11.858;2024-03-02T14:46:06;12.60;99.90
26990;DHT22;14537;47.788;11.858;2024-03-02T14:48:35;12.60;99.90
26990;DHT22;14537;47.788;11.858;2024-03-02T14:51:00;12.60;99.90
26990;DHT22;14537;47.788;11.858;2024-03-02T14:53:27;12.60;99.90
26990;DHT22;14537;47.788;11.858;2024-03-02T14:55:53;12.60;99.90
26990;DHT22;14537;47.788;11.858;2024-03-02T14:58:19;12.60;99.90
26990;DHT22;14537;47.788;11.858;2024-03-02T15:00:45;12.70;99.90
26990;DHT22;14537;47.788;11.858;2024-03-02T15:03:10;12.70;99.90
26990;DHT22;14537;47.788;11.858;2024-03-02T15:05:37;12.70;99.90
26990;DHT22;14537;47.788;11.858;2024-03-02T15:08:04;12.60;99.90
26990;DHT22;14537;47.788;11.858;2024-03-02T15:10:30;12.60;99.90
26990;DHT22;14537;47.788;11.858;2024-03-02T15:12:57;12.50;99.90
26990;DHT22;14537;47.788;11.858;2024-03-02T15:15:22;12.50;99.90
26990;DHT22;14537;47.788;11.858;2024-03-02T15:17:48;12.60;99.90
26990;DHT22;14537;47.788;11.858;2024-03-02T15:20:14;12.50;99.90
26990;DHT22;14537;47.788;11.858;2024-03-02T15:22:40;12.50;99.90
26990;DHT22;14537;47.788;11.858;2024-03-02T15:25:06;12.50;99.90
26990;DHT22;14537;47.788;11.858;2024-03-02T15:27:32;12.40;99.90
26990;DHT22;14537;47.788;11.858;2024-03-02T15:29:58;12.40;99.90
26990;DHT22;14537;47.788;11.858;2024-03-02T15:32:24;12.40;99.90
26990;DHT22;14537;47.788;11.858;2024-03-02T15:34:52;12.30;99.90
26990;DHT22;14537;47.788;11.858;2024-03-02T15:37:18;12.30;99.90
26990;DHT22;14537;47.788;11.858;2024-03-02T15:39:44;12.30;99.90